createdAt,value
2022-11-16T00:01:16.563Z,8.83
2022-11-16T00:03:44.099Z,8.80
2022-11-16T00:06:11.762Z,8.82
2022-11-16T00:08:44.294Z,8.82
2022-11-16T00:11:14.477Z,8.79
2022-11-16T00:13:43.390Z,8.77
2022-11-16T00:16:18.143Z,8.72
2022-11-16T00:18:45.454Z,8.72
2022-11-16T00:21:12.201Z,8.73
2022-11-16T00:23:39.355Z,8.75
2022-11-16T00:26:08.585Z,8.74
2022-11-16T00:28:36.243Z,8.74
2022-11-16T00:31:05.866Z,8.72
2022-11-16T00:33:33.825Z,8.69
2022-11-16T00:36:05.467Z,8.69
2022-11-16T00:38:33.746Z,8.69
2022-11-16T00:41:00.802Z,8.70
2022-11-16T00:43:28.359Z,8.71
2022-11-16T00:45:55.174Z,8.71
2022-11-16T00:48:22.538Z,8.71
2022-11-16T00:50:49.493Z,8.71
2022-11-16T00:53:17.993Z,8.72
2022-11-16T00:55:46.269Z,8.71
2022-11-16T00:58:14.066Z,8.69
2022-11-16T01:00:41.974Z,8.67
2022-11-16T01:03:09.109Z,8.65
2022-11-16T01:05:36.138Z,8.65
2022-11-16T01:08:03.578Z,8.63
2022-11-16T01:10:30.878Z,8.62
2022-11-16T01:12:58.279Z,8.63
2022-11-16T01:15:27.004Z,8.62
2022-11-16T01:17:55.675Z,8.60
2022-11-16T01:20:25.886Z,8.59
2022-11-16T01:22:53.827Z,8.56
2022-11-16T01:25:20.988Z,8.57
2022-11-16T01:27:48.077Z,8.61
2022-11-16T01:30:16.017Z,8.62
2022-11-16T01:32:43.085Z,8.61
2022-11-16T01:35:10.678Z,8.63
2022-11-16T01:37:37.695Z,8.64
2022-11-16T01:40:04.897Z,8.64
2022-11-16T01:42:33.580Z,8.60
2022-11-16T01:45:14.133Z,8.58
2022-11-16T01:47:41.143Z,8.59
2022-11-16T01:50:13.222Z,8.57
2022-11-16T01:52:47.740Z,8.54
2022-11-16T01:55:14.935Z,8.57
2022-11-16T01:57:45.589Z,8.57
2022-11-16T02:00:13.306Z,8.57
2022-11-16T02:02:40.866Z,8.59
2022-11-16T02:05:08.502Z,8.60
2022-11-16T02:08:07.234Z,8.57
2022-11-16T02:10:57.214Z,8.54
2022-11-16T02:13:51.991Z,8.51
2022-11-16T02:16:43.498Z,8.50
2022-11-16T02:19:10.456Z,8.49
2022-11-16T02:21:43.114Z,8.48
2022-11-16T02:24:16.263Z,8.45
2022-11-16T02:27:00.909Z,8.43
2022-11-16T02:29:45.036Z,8.40
2022-11-16T02:32:17.694Z,8.41
2022-11-16T02:34:54.206Z,8.37
2022-11-16T02:37:24.586Z,8.35
2022-11-16T02:39:56.625Z,8.33
2022-11-16T02:42:30.560Z,8.31
2022-11-16T02:44:59.667Z,8.31
2022-11-16T02:47:31.229Z,8.30
2022-11-16T02:50:05.066Z,8.27
2022-11-16T02:52:32.072Z,8.25
2022-11-16T02:54:59.118Z,8.23
2022-11-16T02:57:51.765Z,8.19
2022-11-16T03:00:29.753Z,8.18
2022-11-16T03:03:07.446Z,8.16
2022-11-16T03:05:45.622Z,8.14
2022-11-16T03:08:26.452Z,8.11
2022-11-16T03:13:34.860Z,8.01
2022-11-16T03:16:11.430Z,8.01
2022-11-16T03:18:40.797Z,8.00
2022-11-16T03:21:36.175Z,7.95
2022-11-16T03:24:03.629Z,7.95
2022-11-16T03:26:41.271Z,7.95
2022-11-16T03:29:20.300Z,7.93
2022-11-16T03:31:53.443Z,7.84
2022-11-16T03:34:25.759Z,7.87
2022-11-16T03:36:55.904Z,7.89
2022-11-16T03:39:35.816Z,7.86
2022-11-16T03:42:09.435Z,7.88
2022-11-16T03:44:38.705Z,7.87
2022-11-16T03:47:05.735Z,7.82
2022-11-16T03:49:32.494Z,7.81
2022-11-16T03:51:59.571Z,7.81
2022-11-16T03:54:26.432Z,7.79
2022-11-16T03:56:53.519Z,7.79
2022-11-16T03:59:20.260Z,7.80
2022-11-16T04:01:47.279Z,7.80
2022-11-16T04:04:34.055Z,7.80
2022-11-16T04:07:19.849Z,7.79
2022-11-16T04:10:05.112Z,7.78
2022-11-16T04:12:51.024Z,7.77
2022-11-16T04:15:43.852Z,7.78
2022-11-16T04:18:29.256Z,7.77
2022-11-16T04:21:15.698Z,7.76
2022-11-16T04:24:01.754Z,7.75
2022-11-16T04:26:47.318Z,7.72
2022-11-16T04:29:14.762Z,7.70
2022-11-16T04:31:59.754Z,7.70
2022-11-16T04:34:45.336Z,7.67
2022-11-16T04:37:33.121Z,7.64
2022-11-16T04:40:00.189Z,7.62
2022-11-16T04:42:26.959Z,7.59
2022-11-16T04:45:12.763Z,7.57
2022-11-16T04:47:39.541Z,7.56
2022-11-16T04:50:07.165Z,7.54
2022-11-16T04:52:33.933Z,7.54
2022-11-16T04:55:00.980Z,7.53
2022-11-16T04:57:28.050Z,7.52
2022-11-16T04:59:55.137Z,7.52
2022-11-16T05:02:21.901Z,7.52
2022-11-16T05:04:48.983Z,7.53
2022-11-16T05:07:15.898Z,7.53
2022-11-16T05:09:45.489Z,7.52
2022-11-16T05:12:16.611Z,7.42
2022-11-16T05:14:44.521Z,7.44
2022-11-16T05:17:12.063Z,7.42
2022-11-16T05:19:57.957Z,7.40
2022-11-16T05:22:25.164Z,7.38
2022-11-16T05:24:52.774Z,7.39
2022-11-16T05:27:21.409Z,7.41
2022-11-16T05:29:49.799Z,7.40
2022-11-16T05:32:18.001Z,7.40
2022-11-16T05:34:45.777Z,7.38
2022-11-16T05:37:13.191Z,7.37
2022-11-16T05:39:40.394Z,7.34
2022-11-16T05:42:07.812Z,7.33
2022-11-16T05:44:34.900Z,7.33
2022-11-16T05:47:01.934Z,7.34
2022-11-16T05:49:29.110Z,7.34
2022-11-16T05:51:55.951Z,7.34
2022-11-16T05:54:25.968Z,7.37
2022-11-16T05:56:54.101Z,7.35
2022-11-16T05:59:22.621Z,7.33
2022-11-16T06:01:49.971Z,7.34
2022-11-16T06:06:58.355Z,7.34
2022-11-16T06:09:25.412Z,7.33
2022-11-16T06:11:52.172Z,7.28
2022-11-16T06:14:19.289Z,7.26
2022-11-16T06:16:46.046Z,7.25
2022-11-16T06:19:13.081Z,7.21
2022-11-16T06:21:39.897Z,7.22
2022-11-16T06:24:09.237Z,7.23
2022-11-16T06:26:37.114Z,7.23
2022-11-16T06:29:04.230Z,7.21
2022-11-16T06:31:31.391Z,7.22
2022-11-16T06:33:58.434Z,7.22
2022-11-16T06:36:25.224Z,7.23
2022-11-16T06:38:52.271Z,7.22
2022-11-16T06:41:19.061Z,7.22
2022-11-16T06:43:46.268Z,7.23
2022-11-16T06:46:13.073Z,7.24
2022-11-16T06:48:40.226Z,7.25
2022-11-16T06:51:07.085Z,7.22
2022-11-16T06:53:34.178Z,7.23
2022-11-16T06:56:03.153Z,7.22
2022-11-16T06:58:31.916Z,7.16
2022-11-16T07:01:06.069Z,7.19
2022-11-16T07:03:33.107Z,7.19
2022-11-16T07:05:59.845Z,7.20
2022-11-16T07:08:28.002Z,7.22
2022-11-16T07:10:54.729Z,7.22
2022-11-16T07:13:21.755Z,7.21
2022-11-16T07:15:48.500Z,7.24
2022-11-16T07:18:15.510Z,7.26
2022-11-16T07:20:42.234Z,7.28
2022-11-16T07:23:13.973Z,7.30
2022-11-16T07:25:41.315Z,7.32
2022-11-16T07:28:08.403Z,7.32
2022-11-16T07:30:35.183Z,7.33
2022-11-16T07:33:02.205Z,7.32
2022-11-16T07:35:29.170Z,7.31
2022-11-16T07:37:56.204Z,7.32
2022-11-16T07:40:23.037Z,7.29
2022-11-16T07:42:50.175Z,7.31
2022-11-16T07:45:16.968Z,7.29
2022-11-16T07:47:44.011Z,7.32
2022-11-16T07:50:11.071Z,7.30
2022-11-16T07:52:38.108Z,7.29
2022-11-16T07:55:05.886Z,7.30
2022-11-16T07:57:33.047Z,7.32
2022-11-16T08:00:00.127Z,7.32
2022-11-16T08:02:27.143Z,7.34
2022-11-16T08:04:53.922Z,7.34
2022-11-16T08:07:20.970Z,7.35
2022-11-16T08:09:48.247Z,7.33
2022-11-16T08:12:15.926Z,7.32
2022-11-16T08:14:42.677Z,7.32
2022-11-16T08:17:09.723Z,7.32
2022-11-16T08:19:36.719Z,7.31
2022-11-16T08:22:03.899Z,7.30
2022-11-16T08:24:31.133Z,7.31
2022-11-16T08:26:58.904Z,7.36
2022-11-16T08:29:26.444Z,7.41
2022-11-16T08:31:54.024Z,7.41
2022-11-16T08:34:21.402Z,7.39
2022-11-16T08:36:48.519Z,7.38
2022-11-16T08:39:15.398Z,7.39
2022-11-16T08:41:44.302Z,7.39
2022-11-16T08:44:11.625Z,7.40
2022-11-16T08:46:39.907Z,7.38
2022-11-16T08:49:06.768Z,7.37
2022-11-16T08:51:33.907Z,7.35
2022-11-16T08:54:01.657Z,7.35
2022-11-16T08:56:30.216Z,7.38
2022-11-16T08:58:59.161Z,7.34
2022-11-16T09:01:30.135Z,7.31
2022-11-16T09:03:57.371Z,7.25
2022-11-16T09:06:26.049Z,7.24
2022-11-16T09:08:53.016Z,7.21
2022-11-16T09:11:22.245Z,7.17
2022-11-16T09:13:51.522Z,7.08
2022-11-16T09:16:21.109Z,7.02
2022-11-16T09:18:49.977Z,6.98
2022-11-16T09:21:21.807Z,6.95
2022-11-16T09:23:49.502Z,6.94
2022-11-16T09:26:20.527Z,6.91
2022-11-16T09:28:48.447Z,6.91
2022-11-16T09:31:18.993Z,6.89
2022-11-16T09:33:52.062Z,6.88
2022-11-16T09:36:20.704Z,6.88
2022-11-16T09:39:23.745Z,6.87
2022-11-16T09:41:59.826Z,6.82
2022-11-16T09:44:41.601Z,6.81
2022-11-16T09:47:16.349Z,6.81
2022-11-16T09:49:51.284Z,6.80
2022-11-16T09:52:36.258Z,6.77
2022-11-16T09:55:25.684Z,6.74
2022-11-16T09:57:55.932Z,6.73
2022-11-16T10:00:23.790Z,6.68
2022-11-16T10:03:06.394Z,6.64
2022-11-16T10:05:41.164Z,6.62
2022-11-16T10:08:34.508Z,6.58
2022-11-16T10:11:40.054Z,6.56
2022-11-16T10:14:24.978Z,6.55
2022-11-16T10:17:29.357Z,6.49
2022-11-16T10:20:19.255Z,6.49
2022-11-16T10:23:13.944Z,6.47
2022-11-16T10:25:46.442Z,6.45
2022-11-16T10:28:30.382Z,6.47
2022-11-16T10:31:18.525Z,6.46
2022-11-16T10:33:49.130Z,6.45
2022-11-16T10:36:16.790Z,6.47
2022-11-16T10:38:45.133Z,6.45
2022-11-16T10:41:18.571Z,6.44
2022-11-16T10:43:46.362Z,6.43
2022-11-16T10:46:13.317Z,6.43
2022-11-16T10:48:43.416Z,6.41
2022-11-16T10:51:10.974Z,6.41
2022-11-16T10:53:40.315Z,6.43
2022-11-16T10:56:20.165Z,6.44
2022-11-16T10:58:55.726Z,6.46
2022-11-16T11:01:30.175Z,6.44
2022-11-16T11:03:56.990Z,6.47
2022-11-16T11:06:26.133Z,6.45
2022-11-16T11:08:52.969Z,6.47
2022-11-16T11:11:41.991Z,6.44
2022-11-16T11:14:15.713Z,6.43
2022-11-16T11:16:42.768Z,6.46
2022-11-16T11:19:29.084Z,6.44
2022-11-16T11:21:58.931Z,6.46
2022-11-16T11:27:20.698Z,6.46
2022-11-16T11:29:53.579Z,6.47
2022-11-16T11:32:24.382Z,6.45
2022-11-16T11:34:54.815Z,6.44
2022-11-16T11:37:27.317Z,6.43
2022-11-16T11:40:20.546Z,6.40
2022-11-16T11:43:01.007Z,6.40
2022-11-16T11:45:36.241Z,6.42
2022-11-16T11:48:27.981Z,6.44
2022-11-16T11:50:58.915Z,6.46
2022-11-16T11:53:35.387Z,6.45
2022-11-16T11:56:02.751Z,6.49
2022-11-16T11:58:34.126Z,6.48
2022-11-16T12:01:24.886Z,6.51
2022-11-16T12:04:10.464Z,6.53
2022-11-16T12:06:42.635Z,6.51
2022-11-16T12:09:29.247Z,6.51
2022-11-16T12:12:30.306Z,6.49
2022-11-16T12:15:03.333Z,6.46
2022-11-16T12:17:54.691Z,6.45
2022-11-16T12:20:41.459Z,6.42
2022-11-16T12:23:44.238Z,6.39
2022-11-16T12:26:16.935Z,6.38
2022-11-16T12:29:03.723Z,6.32
2022-11-16T12:31:37.024Z,6.29
2022-11-16T12:34:32.806Z,6.28
2022-11-16T12:37:04.361Z,6.29
2022-11-16T12:39:35.351Z,6.27
2022-11-16T12:42:02.382Z,6.26
2022-11-16T12:44:51.396Z,6.22
2022-11-16T12:47:32.056Z,6.22
2022-11-16T12:50:13.974Z,6.19
2022-11-16T12:52:46.978Z,6.17
2022-11-16T12:55:27.567Z,6.19
2022-11-16T12:58:07.039Z,6.18
2022-11-16T13:00:50.199Z,6.11
2022-11-16T13:03:29.510Z,6.07
2022-11-16T13:05:58.366Z,6.04
2022-11-16T13:08:28.445Z,6.00
2022-11-16T13:11:02.045Z,5.97
2022-11-16T13:13:38.833Z,5.96
2022-11-16T13:16:07.361Z,5.93
2022-11-16T13:18:38.903Z,5.89
2022-11-16T13:21:42.473Z,5.85
2022-11-16T13:24:19.434Z,5.79
2022-11-16T13:27:33.910Z,5.77
2022-11-16T13:30:06.600Z,5.75
2022-11-16T13:32:34.903Z,5.73
2022-11-16T13:35:05.338Z,5.71
2022-11-16T13:37:37.892Z,5.67
2022-11-16T13:40:05.120Z,5.66
2022-11-16T13:43:10.811Z,5.63
2022-11-16T13:45:49.833Z,5.59
2022-11-16T13:48:25.735Z,5.54
2022-11-16T13:50:59.078Z,5.50
2022-11-16T13:56:16.092Z,5.41
2022-11-16T13:58:49.278Z,5.38
2022-11-16T14:01:17.908Z,5.31
2022-11-16T14:03:51.545Z,5.24
2022-11-16T14:06:24.464Z,5.18
2022-11-16T14:08:53.438Z,5.21
2022-11-16T14:11:40.014Z,5.16
2022-11-16T14:14:11.734Z,5.14
2022-11-16T14:16:51.595Z,5.12
2022-11-16T14:19:57.072Z,5.10
2022-11-16T14:22:42.208Z,5.10
2022-11-16T14:25:33.259Z,5.07
2022-11-16T14:28:14.981Z,5.06
2022-11-16T14:31:15.516Z,5.04
2022-11-16T14:33:42.958Z,5.03
2022-11-16T14:36:10.789Z,5.05
2022-11-16T14:38:42.022Z,5.02
2022-11-16T14:41:21.132Z,4.99
2022-11-16T14:43:52.812Z,5.00
2022-11-16T14:46:27.971Z,5.00
2022-11-16T14:48:57.358Z,4.99
2022-11-16T14:51:34.993Z,4.97
2022-11-16T14:54:24.917Z,4.95
2022-11-16T14:57:13.071Z,4.89
2022-11-16T14:59:40.124Z,4.90
2022-11-16T15:02:18.904Z,4.84
2022-11-16T15:04:46.436Z,4.86
2022-11-16T15:07:15.416Z,4.83
2022-11-16T15:09:49.318Z,4.81
2022-11-16T15:12:37.399Z,4.78
2022-11-16T15:15:08.219Z,4.75
2022-11-16T15:17:35.516Z,4.73
2022-11-16T15:20:20.040Z,4.74
2022-11-16T15:22:50.829Z,4.73
2022-11-16T15:25:41.606Z,4.70
2022-11-16T15:28:27.930Z,4.70
2022-11-16T15:31:00.862Z,4.69
2022-11-16T15:33:36.555Z,4.70
2022-11-16T15:36:39.668Z,4.68
2022-11-16T15:39:13.109Z,4.68
2022-11-16T15:41:40.604Z,4.69
2022-11-16T15:44:15.090Z,4.66
2022-11-16T15:46:46.067Z,4.60
2022-11-16T15:49:32.459Z,4.57
2022-11-16T15:52:00.055Z,4.54
2022-11-16T15:54:52.631Z,4.49
2022-11-16T15:57:22.041Z,4.47
2022-11-16T15:59:54.855Z,4.44
2022-11-16T16:02:25.921Z,4.42
2022-11-16T16:04:52.759Z,4.41
2022-11-16T16:07:40.192Z,4.36
2022-11-16T16:10:13.328Z,4.33
2022-11-16T16:12:54.336Z,4.29
2022-11-16T16:15:21.224Z,4.27
2022-11-16T16:17:48.878Z,4.24
2022-11-16T16:20:21.847Z,4.18
2022-11-16T16:22:49.117Z,4.15
2022-11-16T16:25:35.982Z,4.11
2022-11-16T16:28:03.554Z,4.11
2022-11-16T16:30:31.534Z,4.06
2022-11-16T16:32:58.950Z,4.03
2022-11-16T16:35:26.619Z,4.01
2022-11-16T16:38:01.254Z,3.95
2022-11-16T16:40:29.122Z,3.92
2022-11-16T16:42:57.940Z,3.87
2022-11-16T16:45:34.517Z,3.85
2022-11-16T16:48:01.549Z,3.83
2022-11-16T16:50:28.771Z,3.82
2022-11-16T16:52:55.808Z,3.78
2022-11-16T16:55:22.622Z,3.76
2022-11-16T16:57:49.699Z,3.73
2022-11-16T17:00:17.116Z,3.71
2022-11-16T17:02:44.359Z,3.70
2022-11-16T17:05:11.154Z,3.69
2022-11-16T17:07:38.224Z,3.68
2022-11-16T17:10:05.573Z,3.67
2022-11-16T17:12:32.737Z,3.64
2022-11-16T17:14:59.538Z,3.61
2022-11-16T17:17:27.119Z,3.62
2022-11-16T17:19:53.942Z,3.57
2022-11-16T17:22:21.295Z,3.57
2022-11-16T17:24:48.062Z,3.55
2022-11-16T17:27:15.202Z,3.53
2022-11-16T17:29:41.950Z,3.52
2022-11-16T17:32:09.078Z,3.49
2022-11-16T17:34:37.828Z,3.49
2022-11-16T17:37:04.878Z,3.47
2022-11-16T17:39:31.591Z,3.46
2022-11-16T17:41:58.648Z,3.45
2022-11-16T17:44:26.704Z,3.44
2022-11-16T17:46:53.768Z,3.42
2022-11-16T17:49:20.528Z,3.41
2022-11-16T17:51:47.676Z,3.41
2022-11-16T17:54:14.945Z,3.41
2022-11-16T17:56:43.313Z,3.38
2022-11-16T17:59:10.083Z,3.37
2022-11-16T18:01:37.304Z,3.37
2022-11-16T18:04:04.752Z,3.35
2022-11-16T18:06:33.208Z,3.35
2022-11-16T18:09:00.160Z,3.36
2022-11-16T18:11:28.336Z,3.34
2022-11-16T18:14:00.609Z,3.33
2022-11-16T18:16:31.628Z,3.30
2022-11-16T18:19:03.817Z,3.29
2022-11-16T18:21:31.798Z,3.27
2022-11-16T18:23:59.644Z,3.26
2022-11-16T18:26:26.680Z,3.25
2022-11-16T18:28:54.007Z,3.25
2022-11-16T18:31:23.251Z,3.20
2022-11-16T18:33:50.895Z,3.19
2022-11-16T18:36:19.654Z,3.19
2022-11-16T18:38:47.138Z,3.16
2022-11-16T18:41:14.197Z,3.15
2022-11-16T18:43:55.340Z,3.11
2022-11-16T18:46:25.686Z,3.10
2022-11-16T18:48:52.630Z,3.09
2022-11-16T18:51:21.295Z,3.07
2022-11-16T18:53:48.612Z,3.09
2022-11-16T18:56:16.361Z,3.05
2022-11-16T18:58:50.247Z,3.04
2022-11-16T19:01:19.832Z,3.03
2022-11-16T19:03:46.817Z,3.02
2022-11-16T19:06:15.649Z,3.03
2022-11-16T19:08:43.618Z,3.03
2022-11-16T19:11:12.092Z,3.03
2022-11-16T19:13:40.384Z,3.02
2022-11-16T19:16:08.586Z,3.02
2022-11-16T19:18:36.482Z,3.03
2022-11-16T19:21:15.176Z,3.01
2022-11-16T19:23:44.507Z,3.01
2022-11-16T19:26:13.409Z,2.99
2022-11-16T19:28:42.861Z,3.00
2022-11-16T19:31:16.050Z,2.98
2022-11-16T19:33:44.510Z,2.99
2022-11-16T19:36:16.934Z,2.96
2022-11-16T19:38:45.252Z,2.94
2022-11-16T19:41:14.491Z,2.93
2022-11-16T19:43:42.341Z,2.94
2022-11-16T19:46:17.830Z,2.93
2022-11-16T19:48:46.003Z,2.91
2022-11-16T19:51:19.206Z,2.86
2022-11-16T19:53:46.433Z,2.83
2022-11-16T19:56:15.308Z,2.79
2022-11-16T19:58:42.752Z,2.77
2022-11-16T20:01:15.269Z,2.74
2022-11-16T20:03:42.339Z,2.71
2022-11-16T20:06:21.691Z,2.69
2022-11-16T20:08:51.023Z,2.67
2022-11-16T20:11:26.278Z,2.69
2022-11-16T20:13:54.695Z,2.68
2022-11-16T20:16:24.278Z,2.64
2022-11-16T20:18:52.785Z,2.63
2022-11-16T20:21:25.617Z,2.65
2022-11-16T20:23:53.498Z,2.62
2022-11-16T20:26:21.486Z,2.59
2022-11-16T20:28:52.709Z,2.61
2022-11-16T20:31:22.505Z,2.56
2022-11-16T20:33:54.790Z,2.57
2022-11-16T20:36:23.477Z,2.58
2022-11-16T20:38:50.664Z,2.58
2022-11-16T20:41:18.857Z,2.55
2022-11-16T20:43:47.225Z,2.50
2022-11-16T20:46:16.074Z,2.46
2022-11-16T20:48:43.773Z,2.44
2022-11-16T20:51:14.413Z,2.43
2022-11-16T20:53:41.201Z,2.43
2022-11-16T20:56:10.327Z,2.41
2022-11-16T20:58:37.841Z,2.39
2022-11-16T21:01:13.974Z,2.40
2022-11-16T21:03:42.563Z,2.43
2022-11-16T21:06:09.691Z,2.43
2022-11-16T21:08:37.916Z,2.43
2022-11-16T21:11:16.906Z,2.42
2022-11-16T21:14:04.143Z,2.41
2022-11-16T21:16:32.590Z,2.43
2022-11-16T21:19:00.400Z,2.41
2022-11-16T21:21:27.561Z,2.45
2022-11-16T21:23:55.166Z,2.45
2022-11-16T21:26:29.025Z,2.44
2022-11-16T21:28:56.734Z,2.42
2022-11-16T21:31:26.221Z,2.41
2022-11-16T21:33:53.447Z,2.38
2022-11-16T21:36:23.053Z,2.38
2022-11-16T21:38:50.607Z,2.39
2022-11-16T21:41:19.222Z,2.40
2022-11-16T21:43:46.673Z,2.42
2022-11-16T21:46:16.017Z,2.44
2022-11-16T21:48:43.180Z,2.47
2022-11-16T21:51:12.990Z,2.47
2022-11-16T21:53:39.926Z,2.45
2022-11-16T21:56:10.440Z,2.44
2022-11-16T21:58:39.165Z,2.45
2022-11-16T22:01:06.555Z,2.42
2022-11-16T22:03:34.155Z,2.44
2022-11-16T22:06:22.199Z,2.46
2022-11-16T22:08:49.215Z,2.48
2022-11-16T22:11:17.069Z,2.48
2022-11-16T22:13:43.880Z,2.49
2022-11-16T22:16:15.137Z,2.50
2022-11-16T22:18:42.191Z,2.50
2022-11-16T22:21:09.187Z,2.49
2022-11-16T22:23:37.324Z,2.45
2022-11-16T22:26:07.490Z,2.45
2022-11-16T22:28:35.217Z,2.40
2022-11-16T22:31:07.384Z,2.37
2022-11-16T22:33:35.072Z,2.34
2022-11-16T22:36:02.330Z,2.32
2022-11-16T22:38:29.702Z,2.32
2022-11-16T22:40:57.491Z,2.32
2022-11-16T22:43:26.890Z,2.31
2022-11-16T22:45:56.861Z,2.22
2022-11-16T22:48:23.846Z,2.23
2022-11-16T22:50:50.592Z,2.26
2022-11-16T22:53:17.604Z,2.22
2022-11-16T22:55:44.710Z,2.21
2022-11-16T22:58:11.711Z,2.22
2022-11-16T23:00:42.021Z,2.21
2022-11-16T23:03:09.504Z,2.20
2022-11-16T23:05:36.237Z,2.16
2022-11-16T23:08:03.230Z,2.15
2022-11-16T23:10:49.995Z,2.14
2022-11-16T23:13:35.756Z,2.09
2022-11-16T23:16:06.010Z,2.10
2022-11-16T23:18:33.002Z,2.10
2022-11-16T23:21:18.416Z,2.10
2022-11-16T23:24:03.695Z,2.11
2022-11-16T23:26:48.814Z,2.13
2022-11-16T23:29:15.840Z,2.08
2022-11-16T23:31:42.540Z,2.06
2022-11-16T23:34:09.506Z,2.05
2022-11-16T23:36:36.216Z,2.02
2022-11-16T23:39:03.272Z,2.00
2022-11-16T23:41:48.405Z,1.98
2022-11-16T23:44:15.400Z,1.94
2022-11-16T23:46:42.131Z,1.91
2022-11-16T23:49:09.116Z,1.85
2022-11-16T23:51:35.792Z,1.81
2022-11-16T23:54:04.849Z,1.82
2022-11-16T23:56:31.890Z,1.81
2022-11-16T23:58:58.885Z,1.82
